createdAt,value
2018-06-08T00:00:57.815Z,50.60
2018-06-08T00:03:28.690Z,48.20
2018-06-08T00:08:35.511Z,53.27
2018-06-08T00:11:06.382Z,48.53
2018-06-08T00:16:13.198Z,48.80
2018-06-08T00:18:43.763Z,52.30
2018-06-08T00:21:15.348Z,46.73
2018-06-08T00:23:45.907Z,55.50
2018-06-08T00:26:16.666Z,54.60
2018-06-08T00:28:47.249Z,52.77
2018-06-08T00:31:17.951Z,59.40
2018-06-08T00:33:48.505Z,46.20
2018-06-08T00:36:19.164Z,45.97
2018-06-08T00:38:49.823Z,49.10
2018-06-08T00:41:20.458Z,43.80
2018-06-08T00:43:51.149Z,45.13
2018-06-08T00:46:22.594Z,49.80
2018-06-08T00:48:53.231Z,48.43
2018-06-08T00:51:23.950Z,42.43
2018-06-08T00:53:54.481Z,47.90
2018-06-08T00:56:35.890Z,44.00
2018-06-08T00:59:06.855Z,46.90
2018-06-08T01:01:38.279Z,38.57
2018-06-08T01:04:08.829Z,45.70
2018-06-08T01:06:39.571Z,40.10
2018-06-08T01:09:10.928Z,42.33
2018-06-08T01:11:41.655Z,42.03
2018-06-08T01:14:12.277Z,42.43
2018-06-08T01:16:42.899Z,44.50
2018-06-08T01:19:13.973Z,48.00
2018-06-08T01:21:45.703Z,44.33
2018-06-08T01:24:16.857Z,43.37
2018-06-08T01:26:47.860Z,50.47
2018-06-08T01:29:18.856Z,45.43
2018-06-08T01:31:49.774Z,45.30
2018-06-08T01:34:20.979Z,42.43
2018-06-08T01:36:51.777Z,38.00
2018-06-08T01:39:22.641Z,42.10
2018-06-08T01:41:54.651Z,43.67
2018-06-08T01:44:25.406Z,47.03
2018-06-08T01:46:56.545Z,43.57
2018-06-08T01:49:27.389Z,41.67
2018-06-08T01:51:58.212Z,44.83
2018-06-08T01:54:29.154Z,44.43
2018-06-08T01:57:00.167Z,51.00
2018-06-08T01:59:31.046Z,42.90
2018-06-08T02:02:03.700Z,48.20
2018-06-08T02:04:34.890Z,41.70
2018-06-08T02:07:06.982Z,44.50
2018-06-08T02:09:37.960Z,48.90
2018-06-08T02:12:11.488Z,48.53
2018-06-08T02:14:42.481Z,44.43
2018-06-08T02:17:16.612Z,40.90
2018-06-08T02:19:47.420Z,45.67
2018-06-08T02:22:18.431Z,43.00
2018-06-08T02:24:49.516Z,41.00
2018-06-08T02:27:20.932Z,43.20
2018-06-08T02:29:51.901Z,42.97
2018-06-08T02:32:28.830Z,48.17
2018-06-08T02:35:00.810Z,47.53
2018-06-08T02:40:07.960Z,40.20
2018-06-08T02:42:38.810Z,34.83
2018-06-08T02:45:09.843Z,32.83
2018-06-08T02:47:40.840Z,38.07
2018-06-08T02:50:11.931Z,28.70
2018-06-08T02:52:43.109Z,30.67
2018-06-08T02:55:14.891Z,34.67
2018-06-08T02:57:46.834Z,39.90
2018-06-08T03:00:18.106Z,45.13
2018-06-08T03:02:49.142Z,39.20
2018-06-08T03:05:20.834Z,41.27
2018-06-08T03:07:51.714Z,30.23
2018-06-08T03:10:22.622Z,40.77
2018-06-08T03:12:55.549Z,31.57
2018-06-08T03:15:26.629Z,31.10
2018-06-08T03:17:57.731Z,47.13
2018-06-08T03:20:29.845Z,37.53
2018-06-08T03:23:00.702Z,27.67
2018-06-08T03:25:32.608Z,33.07
2018-06-08T03:28:04.463Z,28.30
2018-06-08T03:30:35.584Z,32.80
2018-06-08T03:33:06.527Z,29.33
2018-06-08T03:35:37.130Z,26.07
2018-06-08T03:38:07.764Z,23.80
2018-06-08T03:40:39.185Z,30.20
2018-06-08T03:43:09.771Z,25.60
2018-06-08T03:45:42.222Z,27.93
2018-06-08T03:48:13.240Z,19.30
2018-06-08T03:50:45.197Z,19.80
2018-06-08T03:53:16.356Z,19.67
2018-06-08T03:56:18.284Z,20.70
2018-06-08T03:58:49.353Z,18.63
2018-06-08T04:03:55.811Z,19.10
2018-06-08T04:06:26.442Z,15.33
2018-06-08T04:08:57.992Z,18.03
2018-06-08T04:11:28.543Z,17.33
2018-06-08T04:13:59.122Z,17.30
2018-06-08T04:16:29.894Z,14.27
2018-06-08T04:19:00.505Z,17.60
2018-06-08T04:21:31.196Z,15.40
2018-06-08T04:24:01.750Z,15.13
2018-06-08T04:26:32.332Z,15.97
2018-06-08T04:29:03.774Z,13.97
2018-06-08T04:31:34.801Z,15.20
2018-06-08T04:34:05.818Z,18.37
2018-06-08T04:36:36.791Z,12.10
2018-06-08T04:39:09.501Z,17.70
2018-06-08T04:41:40.652Z,13.97
2018-06-08T04:44:13.195Z,16.43
2018-06-08T04:46:44.275Z,11.67
2018-06-08T04:49:17.674Z,15.30
2018-06-08T04:51:48.590Z,12.00
2018-06-08T04:54:23.068Z,13.07
2018-06-08T04:56:53.651Z,11.17
2018-06-08T04:59:25.172Z,18.03
2018-06-08T05:01:55.774Z,14.20
2018-06-08T05:04:26.431Z,15.07
2018-06-08T05:06:57.003Z,12.40
2018-06-08T05:09:30.170Z,12.07
2018-06-08T05:12:00.669Z,14.63
2018-06-08T05:14:31.245Z,18.60
2018-06-08T05:17:01.838Z,13.73
2018-06-08T05:19:35.353Z,10.17
2018-06-08T05:22:06.081Z,19.63
2018-06-08T05:24:37.507Z,11.27
2018-06-08T05:27:08.319Z,14.33
2018-06-08T05:29:40.843Z,13.47
2018-06-08T05:32:11.358Z,11.10
2018-06-08T05:34:41.951Z,17.87
2018-06-08T05:37:12.595Z,15.40
2018-06-08T05:39:46.138Z,15.97
2018-06-08T05:42:16.718Z,13.03
2018-06-08T05:44:48.401Z,18.00
2018-06-08T05:47:18.978Z,16.97
2018-06-08T05:49:49.613Z,15.57
2018-06-08T05:52:20.184Z,16.40
2018-06-08T05:54:53.943Z,16.00
2018-06-08T05:57:24.553Z,15.83
2018-06-08T05:59:55.181Z,14.23
2018-06-08T06:02:25.686Z,17.33
2018-06-08T06:04:57.278Z,13.53
2018-06-08T06:07:28.123Z,10.43
2018-06-08T06:12:34.567Z,12.53
2018-06-08T06:15:05.193Z,29.83
2018-06-08T06:17:36.032Z,10.53
2018-06-08T06:20:07.871Z,16.50
2018-06-08T06:22:38.546Z,14.23
2018-06-08T06:25:09.091Z,13.37
2018-06-08T06:27:39.783Z,30.50
2018-06-08T06:30:10.456Z,10.83
2018-06-08T06:32:42.123Z,10.23
2018-06-08T06:35:12.656Z,13.70
2018-06-08T06:37:44.208Z,13.30
2018-06-08T06:40:14.836Z,11.93
2018-06-08T06:42:45.448Z,17.50
2018-06-08T06:45:16.098Z,10.33
2018-06-08T06:47:48.426Z,10.63
2018-06-08T06:50:19.353Z,10.70
2018-06-08T06:52:51.582Z,11.50
2018-06-08T06:55:22.156Z,10.10
2018-06-08T06:57:52.751Z,13.97
2018-06-08T07:00:23.403Z,13.93
2018-06-08T07:05:30.132Z,15.60
2018-06-08T07:08:00.838Z,11.23
2018-06-08T07:10:32.376Z,14.10
2018-06-08T07:13:03.075Z,15.17
2018-06-08T07:18:09.492Z,14.37
2018-06-08T07:20:40.188Z,16.07
2018-06-08T07:25:46.287Z,19.63
2018-06-08T07:28:17.033Z,11.43
2018-06-08T07:30:47.628Z,12.77
2018-06-08T07:33:18.229Z,10.47
2018-06-08T07:35:51.902Z,13.23
2018-06-08T07:38:22.534Z,9.03
2018-06-08T07:40:53.430Z,12.23
2018-06-08T07:43:24.165Z,13.03
2018-06-08T07:45:55.878Z,12.00
2018-06-08T07:48:26.509Z,11.87
2018-06-08T07:50:57.151Z,16.50
2018-06-08T07:53:27.796Z,11.93
2018-06-08T07:56:01.514Z,23.40
2018-06-08T07:58:32.155Z,10.70
2018-06-08T08:01:03.689Z,16.73
2018-06-08T08:03:34.236Z,11.90
2018-06-08T08:06:04.832Z,13.63
2018-06-08T08:08:35.480Z,16.47
2018-06-08T08:11:06.171Z,10.03
2018-06-08T08:13:36.741Z,11.80
2018-06-08T08:18:43.149Z,10.77
2018-06-08T08:21:13.681Z,16.40
2018-06-08T08:23:44.447Z,14.40
2018-06-08T08:26:14.993Z,22.10
2018-06-08T08:28:45.838Z,16.60
2018-06-08T08:31:16.448Z,13.30
2018-06-08T08:33:47.931Z,12.90
2018-06-08T08:36:18.723Z,10.40
2018-06-08T08:38:52.203Z,13.90
2018-06-08T08:41:23.334Z,17.53
2018-06-08T08:43:54.786Z,15.70
2018-06-08T08:46:25.618Z,29.10
2018-06-08T08:51:32.736Z,18.93
2018-06-08T08:54:03.379Z,15.93
2018-06-08T08:56:36.430Z,16.90
2018-06-08T08:59:07.018Z,17.30
2018-06-08T09:01:37.592Z,9.90
2018-06-08T09:04:08.146Z,14.90
2018-06-08T09:06:39.689Z,13.70
2018-06-08T09:09:10.302Z,13.57
2018-06-08T09:11:41.898Z,18.13
2018-06-08T09:14:12.519Z,12.73
2018-06-08T09:16:44.882Z,22.40
2018-06-08T09:19:15.512Z,12.23
2018-06-08T09:21:46.198Z,16.23
2018-06-08T09:24:16.903Z,11.50
2018-06-08T09:26:49.239Z,17.30
2018-06-08T09:29:19.795Z,14.10
2018-06-08T09:31:51.343Z,12.83
2018-06-08T09:34:21.960Z,18.80
2018-06-08T09:36:52.588Z,12.63
2018-06-08T09:39:23.467Z,18.00
2018-06-08T09:41:54.471Z,12.07
2018-06-08T09:44:25.508Z,14.90
2018-06-08T09:46:57.657Z,16.20
2018-06-08T09:49:28.612Z,23.60
2018-06-08T09:51:59.593Z,19.17
2018-06-08T09:54:30.711Z,11.90
2018-06-08T09:57:01.575Z,12.53
2018-06-08T09:59:32.699Z,14.30
2018-06-08T10:02:03.710Z,15.03
2018-06-08T10:04:35.442Z,14.53
2018-06-08T10:07:06.387Z,16.20
2018-06-08T10:09:37.360Z,13.70
2018-06-08T10:12:09.544Z,11.67
2018-06-08T10:14:40.587Z,20.43
2018-06-08T10:17:11.603Z,11.50
2018-06-08T10:19:42.463Z,12.10
2018-06-08T10:22:13.597Z,17.80
2018-06-08T10:24:44.269Z,15.70
2018-06-08T10:27:15.374Z,13.23
2018-06-08T10:29:46.365Z,16.50
2018-06-08T10:32:17.091Z,13.07
2018-06-08T10:34:47.643Z,20.03
2018-06-08T10:39:53.611Z,19.03
2018-06-08T10:42:24.359Z,18.40
2018-06-08T10:44:54.911Z,20.40
2018-06-08T10:47:25.489Z,10.50
2018-06-08T10:49:56.072Z,13.00
2018-06-08T10:52:26.730Z,11.63
2018-06-08T10:54:57.304Z,11.37
2018-06-08T10:57:30.830Z,17.33
2018-06-08T11:00:01.521Z,14.10
2018-06-08T11:02:32.523Z,16.13
2018-06-08T11:05:04.943Z,13.17
2018-06-08T11:07:35.820Z,16.63
2018-06-08T11:10:06.839Z,13.00
2018-06-08T11:12:37.970Z,12.57
2018-06-08T11:15:08.863Z,20.03
2018-06-08T11:17:39.661Z,17.13
2018-06-08T11:20:10.836Z,15.33
2018-06-08T11:22:41.883Z,15.13
2018-06-08T11:25:18.876Z,21.87
2018-06-08T11:27:49.454Z,14.20
2018-06-08T11:30:20.053Z,20.77
2018-06-08T11:32:50.782Z,16.27
2018-06-08T11:35:21.442Z,12.80
2018-06-08T11:37:52.062Z,15.13
2018-06-08T11:40:22.652Z,15.10
2018-06-08T11:42:53.306Z,24.40
2018-06-08T11:45:26.884Z,25.87
2018-06-08T11:47:57.483Z,23.47
2018-06-08T11:50:28.070Z,13.80
2018-06-08T11:52:59.121Z,16.33
2018-06-08T11:55:31.070Z,24.43
2018-06-08T11:58:02.035Z,15.47
2018-06-08T12:00:33.350Z,16.50
2018-06-08T12:03:04.291Z,12.87
2018-06-08T12:05:35.252Z,27.77
2018-06-08T12:08:06.177Z,15.77
2018-06-08T12:10:37.076Z,14.53
2018-06-08T12:13:08.047Z,21.50
2018-06-08T12:15:39.511Z,16.37
2018-06-08T12:18:10.199Z,16.53
2018-06-08T12:20:40.879Z,15.27
2018-06-08T12:23:11.449Z,17.57
2018-06-08T12:25:42.164Z,12.73
2018-06-08T12:28:12.859Z,13.67
2018-06-08T12:30:44.379Z,16.57
2018-06-08T12:33:14.948Z,19.13
2018-06-08T12:35:45.503Z,13.20
2018-06-08T12:38:16.055Z,14.17
2018-06-08T12:40:46.872Z,13.80
2018-06-08T12:43:17.392Z,17.17
2018-06-08T12:45:48.013Z,19.93
2018-06-08T12:48:18.551Z,15.50
2018-06-08T12:50:50.325Z,17.27
2018-06-08T12:53:20.945Z,13.90
2018-06-08T12:55:56.305Z,18.73
2018-06-08T12:58:27.075Z,15.20
2018-06-08T13:01:03.997Z,16.77
2018-06-08T13:03:34.585Z,14.27
2018-06-08T13:06:05.344Z,18.43
2018-06-08T13:08:35.941Z,15.33
2018-06-08T13:11:06.584Z,15.03
2018-06-08T13:13:37.150Z,15.17
2018-06-08T13:16:10.684Z,15.00
2018-06-08T13:18:41.236Z,19.60
2018-06-08T13:21:11.977Z,19.13
2018-06-08T13:23:42.656Z,15.70
2018-06-08T13:26:14.398Z,16.10
2018-06-08T13:28:44.954Z,14.40
2018-06-08T13:31:17.277Z,16.57
2018-06-08T13:33:47.861Z,17.60
2018-06-08T13:36:18.615Z,20.10
2018-06-08T13:38:49.174Z,23.03
2018-06-08T13:41:26.519Z,18.97
2018-06-08T13:43:57.060Z,18.70
2018-06-08T13:46:39.258Z,15.33
2018-06-08T13:49:10.343Z,17.70
2018-06-08T13:51:41.326Z,16.70
2018-06-08T13:54:12.333Z,16.60
2018-06-08T13:59:20.416Z,18.27
2018-06-08T14:01:52.066Z,22.60
2018-06-08T14:04:24.436Z,16.93
2018-06-08T14:06:55.418Z,15.37
2018-06-08T14:09:26.609Z,18.87
2018-06-08T14:11:57.530Z,16.73
2018-06-08T14:14:28.194Z,14.47
2018-06-08T14:16:58.886Z,16.90
2018-06-08T14:19:30.357Z,14.50
2018-06-08T14:22:01.004Z,18.23
2018-06-08T14:24:32.567Z,14.50
2018-06-08T14:27:03.163Z,18.53
2018-06-08T14:29:33.867Z,15.20
2018-06-08T14:32:04.703Z,15.60
2018-06-08T14:34:35.754Z,14.40
2018-06-08T14:37:06.748Z,21.43
2018-06-08T14:39:37.454Z,21.77
2018-06-08T14:42:08.475Z,15.50
2018-06-08T14:44:39.569Z,18.13
2018-06-08T14:47:11.723Z,15.10
2018-06-08T14:49:42.725Z,24.17
2018-06-08T14:52:14.043Z,14.57
2018-06-08T14:54:46.159Z,20.03
2018-06-08T14:57:17.152Z,18.30
2018-06-08T14:59:48.372Z,13.83
2018-06-08T15:02:19.517Z,16.17
2018-06-08T15:04:51.440Z,17.20
2018-06-08T15:07:22.487Z,18.20
2018-06-08T15:09:53.866Z,15.30
2018-06-08T15:12:24.704Z,18.40
2018-06-08T15:14:57.569Z,16.73
2018-06-08T15:17:28.609Z,19.50
2018-06-08T15:19:59.717Z,17.53
2018-06-08T15:22:30.845Z,17.83
2018-06-08T15:25:01.915Z,16.50
2018-06-08T15:27:33.019Z,17.20
2018-06-08T15:30:06.588Z,22.63
2018-06-08T15:32:37.737Z,19.67
2018-06-08T15:35:11.334Z,22.03
2018-06-08T15:37:42.466Z,20.03
2018-06-08T15:40:14.410Z,20.83
2018-06-08T15:42:45.457Z,18.40
2018-06-08T15:45:17.361Z,15.23
2018-06-08T15:47:48.543Z,19.27
2018-06-08T15:50:19.626Z,15.93
2018-06-08T15:52:50.536Z,18.53
2018-06-08T15:55:21.511Z,16.13
2018-06-08T15:57:52.645Z,17.23
2018-06-08T16:00:25.540Z,16.33
2018-06-08T16:02:56.750Z,18.23
2018-06-08T16:05:28.500Z,19.60
2018-06-08T16:07:59.493Z,19.47
2018-06-08T16:10:30.818Z,16.47
2018-06-08T16:13:01.878Z,16.37
2018-06-08T16:15:33.828Z,24.63
2018-06-08T16:18:05.110Z,21.10
2018-06-08T16:20:36.091Z,16.17
2018-06-08T16:23:07.411Z,20.93
2018-06-08T16:25:38.602Z,21.20
2018-06-08T16:28:09.754Z,16.97
2018-06-08T16:30:41.731Z,27.30
2018-06-08T16:33:12.747Z,18.50
2018-06-08T16:35:44.637Z,16.07
2018-06-08T16:38:15.763Z,19.20
2018-06-08T16:40:47.122Z,19.60
2018-06-08T16:43:18.188Z,22.83
2018-06-08T16:45:49.241Z,21.47
2018-06-08T16:48:20.097Z,17.90
2018-06-08T16:50:50.683Z,21.00
2018-06-08T16:53:21.769Z,24.50
2018-06-08T16:58:28.563Z,21.57
2018-06-08T17:00:59.369Z,21.80
2018-06-08T17:06:05.633Z,23.27
2018-06-08T17:08:36.318Z,23.60
2018-06-08T17:11:07.052Z,19.33
2018-06-08T17:13:37.639Z,19.30
2018-06-08T17:16:09.294Z,23.20
2018-06-08T17:18:41.338Z,23.73
2018-06-08T17:21:12.471Z,20.90
2018-06-08T17:23:43.718Z,24.60
2018-06-08T17:26:14.751Z,28.90
2018-06-08T17:28:45.881Z,24.73
2018-06-08T17:31:16.987Z,17.10
2018-06-08T17:33:47.903Z,32.73
2018-06-08T17:36:18.881Z,22.73
2018-06-08T17:38:50.053Z,20.40
2018-06-08T17:43:57.453Z,26.73
2018-06-08T17:46:28.147Z,21.03
2018-06-08T17:48:59.212Z,26.00
2018-06-08T17:51:30.912Z,22.77
2018-06-08T17:54:02.902Z,23.57
2018-06-08T17:56:33.697Z,22.97
2018-06-08T17:59:04.650Z,24.27
2018-06-08T18:01:35.733Z,23.17
2018-06-08T18:04:07.533Z,22.53
2018-06-08T18:06:38.635Z,26.33
2018-06-08T18:09:10.007Z,25.40
2018-06-08T18:11:41.060Z,25.40
2018-06-08T18:14:12.554Z,19.83
2018-06-08T18:16:43.395Z,23.47
2018-06-08T18:19:16.032Z,21.63
2018-06-08T18:21:47.786Z,21.93
2018-06-08T18:24:19.112Z,26.93
2018-06-08T18:26:50.344Z,23.83
2018-06-08T18:29:22.590Z,22.37
2018-06-08T18:31:53.655Z,26.37
2018-06-08T18:34:26.436Z,22.13
2018-06-08T18:36:57.747Z,23.27
2018-06-08T18:39:30.349Z,20.90
2018-06-08T18:42:01.300Z,28.53
2018-06-08T18:44:32.375Z,25.63
2018-06-08T18:47:03.506Z,23.60
2018-06-08T18:49:35.533Z,26.13
2018-06-08T18:52:06.564Z,20.40
2018-06-08T18:54:38.360Z,22.80
2018-06-08T18:57:09.449Z,24.07
2018-06-08T18:59:40.730Z,30.53
2018-06-08T19:02:11.702Z,27.70
2018-06-08T19:04:44.567Z,27.90
2018-06-08T19:07:15.625Z,24.40
2018-06-08T19:09:46.669Z,22.83
2018-06-08T19:12:17.640Z,20.33
2018-06-08T19:14:48.934Z,23.80
2018-06-08T19:17:20.068Z,31.53
2018-06-08T19:19:51.733Z,22.83
2018-06-08T19:22:22.631Z,22.27
2018-06-08T19:31:43.019Z,21.33
2018-06-08T19:34:14.372Z,21.47
2018-06-08T19:36:45.594Z,27.17
2018-06-08T19:39:16.354Z,22.10
2018-06-08T19:41:47.680Z,24.13
2018-06-08T19:44:18.534Z,28.00
2018-06-08T19:50:28.060Z,17.87
2018-06-08T19:52:59.480Z,25.00
2018-06-08T19:55:30.744Z,18.67
2018-06-08T19:58:01.652Z,28.57
2018-06-08T20:00:32.326Z,17.90
2018-06-08T20:03:02.905Z,21.50
2018-06-08T20:05:33.540Z,26.60
2018-06-08T20:08:04.285Z,22.93
2018-06-08T20:10:37.510Z,21.03
2018-06-08T20:13:08.216Z,21.47
2018-06-08T20:15:41.668Z,26.77
2018-06-08T20:18:12.316Z,30.73
2018-06-08T20:23:19.265Z,20.53
2018-06-08T20:25:49.952Z,23.70
2018-06-08T20:28:20.504Z,20.03
2018-06-08T20:30:51.155Z,29.13
2018-06-08T20:33:23.085Z,29.80
2018-06-08T20:35:54.185Z,26.77
2018-06-08T20:38:25.148Z,22.23
2018-06-08T20:40:58.483Z,22.40
2018-06-08T20:43:35.621Z,21.83
2018-06-08T20:46:06.838Z,20.43
2018-06-08T20:48:38.003Z,19.23
2018-06-08T20:51:09.055Z,17.70
2018-06-08T20:53:40.784Z,19.23
2018-06-08T20:56:13.858Z,21.33
2018-06-08T20:58:46.352Z,16.63
2018-06-08T21:01:17.415Z,18.37
2018-06-08T21:03:49.736Z,24.43
2018-06-08T21:06:23.046Z,20.10
2018-06-08T21:08:56.389Z,23.10
2018-06-08T21:11:28.513Z,18.17
2018-06-08T21:14:00.991Z,24.87
2018-06-08T21:16:32.803Z,22.40
2018-06-08T21:19:05.448Z,20.60
2018-06-08T21:21:36.729Z,24.63
2018-06-08T21:24:07.949Z,24.63
2018-06-08T21:26:40.052Z,22.40
2018-06-08T21:29:12.104Z,24.80
2018-06-08T21:31:42.929Z,26.50
2018-06-08T21:34:13.903Z,23.03
2018-06-08T21:36:45.943Z,24.30
2018-06-08T21:39:16.962Z,19.93
2018-06-08T21:41:48.855Z,21.47
2018-06-08T21:44:20.714Z,25.73
2018-06-08T21:46:51.841Z,27.17
2018-06-08T21:49:24.762Z,23.33
2018-06-08T21:51:55.893Z,20.13
2018-06-08T21:54:28.125Z,21.87
2018-06-08T21:56:59.243Z,18.53
2018-06-08T21:59:32.333Z,20.43
2018-06-08T22:02:03.406Z,22.80
2018-06-08T22:04:36.533Z,20.03
2018-06-08T22:07:07.719Z,22.13
2018-06-08T22:09:39.606Z,19.07
2018-06-08T22:12:10.645Z,19.90
2018-06-08T22:14:44.712Z,20.57
2018-06-08T22:17:15.883Z,20.23
2018-06-08T22:19:47.828Z,27.43
2018-06-08T22:22:18.986Z,20.33
2018-06-08T22:24:50.893Z,20.57
2018-06-08T22:27:21.969Z,22.97
2018-06-08T22:29:53.777Z,21.83
2018-06-08T22:32:24.805Z,20.00
2018-06-08T22:34:57.290Z,22.00
2018-06-08T22:37:28.352Z,22.10
2018-06-08T22:40:00.184Z,21.03
2018-06-08T22:42:31.222Z,23.60
2018-06-08T22:45:04.033Z,20.47
2018-06-08T22:47:34.943Z,24.80
2018-06-08T22:50:08.751Z,25.80
2018-06-08T22:52:39.869Z,22.50
2018-06-08T22:55:11.189Z,23.77
2018-06-08T22:57:42.055Z,22.20
2018-06-08T23:00:21.122Z,20.13
2018-06-08T23:02:52.030Z,21.07
2018-06-08T23:05:23.348Z,19.33
2018-06-08T23:07:54.461Z,19.33
2018-06-08T23:13:01.470Z,19.73
2018-06-08T23:15:32.117Z,20.10
2018-06-08T23:18:02.930Z,28.10
2018-06-08T23:20:33.955Z,21.20
2018-06-08T23:23:05.940Z,23.63
2018-06-08T23:25:36.739Z,21.67
2018-06-08T23:28:08.612Z,25.73
2018-06-08T23:30:39.927Z,30.67
2018-06-08T23:33:11.059Z,21.80
2018-06-08T23:35:42.055Z,24.23
2018-06-08T23:38:13.020Z,23.20
2018-06-08T23:40:44.032Z,22.30
2018-06-08T23:43:18.330Z,20.83
2018-06-08T23:45:49.226Z,20.90
2018-06-08T23:48:21.044Z,22.20
2018-06-08T23:50:51.883Z,23.90
2018-06-08T23:53:24.824Z,20.67
2018-06-08T23:55:55.819Z,28.60
2018-06-08T23:58:27.163Z,26.70
